Time;durP1;ratioP1;P1;durP2;ratioP2;P2;SDS_P1;SDS_P2;PMS_P1;PMS_P2;Temp;Humidity;BMP_temperature;BMP_pressure;BME280_temperature;BME280_humidity;BME280_pressure;Samples;Min_cycle;Max_cycle;Signal;HPM_P1;HPM_P2
2023/12/26 00:01:53;;;;;;;5.60;2.37;;;10.50;99.90;;;;;;5015552;28;20196;-70
2023/12/26 00:04:19;;;;;;;5.03;2.20;;;10.50;99.90;;;;;;5019634;28;20298;-70
2023/12/26 00:06:44;;;;;;;3.87;2.30;;;10.50;99.90;;;;;;5010240;28;20531;-70
2023/12/26 00:09:12;;;;;;;3.23;2.07;;;10.40;99.90;;;;;;5021609;28;20192;-70
2023/12/26 00:11:45;;;;;;;3.90;2.07;;;10.50;99.90;;;;;;5025498;28;20204;-70
2023/12/26 00:14:12;;;;;;;5.20;2.10;;;10.40;99.90;;;;;;5016996;28;20553;-70
2023/12/26 00:16:40;;;;;;;3.20;2.50;;;10.40;99.90;;;;;;5019442;28;20914;-69
2023/12/26 00:19:05;;;;;;;7.40;2.60;;;10.40;99.90;;;;;;5019428;28;20480;-69
2023/12/26 00:21:31;;;;;;;2.60;1.73;;;10.40;99.90;;;;;;5017973;28;20444;-67
2023/12/26 00:23:57;;;;;;;7.20;1.90;;;10.40;99.90;;;;;;5023370;28;20247;-70
2023/12/26 00:26:22;;;;;;;3.67;1.80;;;10.30;99.90;;;;;;5022961;28;20192;-70
2023/12/26 00:28:48;;;;;;;4.60;1.90;;;10.30;99.90;;;;;;5026359;28;20422;-70
2023/12/26 00:31:14;;;;;;;2.60;1.80;;;10.30;99.90;;;;;;5023902;28;20199;-70
2023/12/26 00:33:39;;;;;;;3.53;2.00;;;10.30;99.90;;;;;;5022739;28;20554;-70
2023/12/26 00:36:05;;;;;;;8.53;2.20;;;10.40;99.90;;;;;;5020132;28;20184;-70
2023/12/26 00:38:31;;;;;;;3.10;1.97;;;10.50;99.90;;;;;;5024210;28;20234;-70
2023/12/26 00:40:57;;;;;;;3.60;1.60;;;10.50;99.90;;;;;;5023508;28;20752;-70
2023/12/26 00:43:22;;;;;;;2.80;1.67;;;10.40;99.90;;;;;;5023701;28;20227;-70
2023/12/26 00:45:48;;;;;;;4.67;1.97;;;10.40;99.90;;;;;;5018383;28;20227;-70
2023/12/26 00:48:13;;;;;;;3.80;1.90;;;10.50;99.90;;;;;;5024600;28;20231;-69
2023/12/26 00:50:41;;;;;;;3.50;1.90;;;10.50;99.90;;;;;;5023461;28;20807;-70
2023/12/26 00:53:10;;;;;;;2.97;1.80;;;10.50;99.90;;;;;;5019135;28;20267;-69
2023/12/26 00:55:36;;;;;;;5.60;2.30;;;10.60;99.90;;;;;;5024344;28;20419;-69
2023/12/26 00:58:01;;;;;;;2.97;2.00;;;10.50;99.90;;;;;;5021540;28;21016;-69
2023/12/26 01:00:27;;;;;;;7.70;2.40;;;10.50;99.90;;;;;;5023708;28;20424;-70
2023/12/26 01:02:53;;;;;;;2.67;2.03;;;10.50;99.90;;;;;;5023312;28;20198;-70
2023/12/26 01:05:18;;;;;;;3.47;2.17;;;10.50;99.90;;;;;;5020379;28;20282;-70
2023/12/26 01:07:44;;;;;;;6.07;2.50;;;10.50;99.90;;;;;;5019686;28;20656;-70
2023/12/26 01:10:10;;;;;;;5.80;3.07;;;10.40;99.90;;;;;;5021297;28;20184;-70
2023/12/26 01:12:35;;;;;;;2.60;1.83;;;10.40;99.90;;;;;;5023583;28;20199;-70
2023/12/26 01:15:01;;;;;;;3.13;2.00;;;10.30;99.90;;;;;;5018666;28;20205;-69
2023/12/26 01:17:26;;;;;;;5.30;2.10;;;10.40;99.90;;;;;;5015381;28;20651;-70
2023/12/26 01:19:52;;;;;;;5.83;2.20;;;10.40;99.90;;;;;;5022460;28;20214;-70
2023/12/26 01:22:18;;;;;;;3.30;2.00;;;10.40;99.90;;;;;;5023676;28;20189;-70
2023/12/26 01:24:43;;;;;;;5.53;2.33;;;10.30;99.90;;;;;;5019975;28;20208;-70
2023/12/26 01:27:09;;;;;;;4.33;2.23;;;10.30;99.90;;;;;;5026814;28;20234;-70
2023/12/26 01:29:35;;;;;;;2.60;1.90;;;10.30;99.90;;;;;;5027979;28;20843;-70
2023/12/26 01:32:01;;;;;;;3.33;2.30;;;10.20;99.90;;;;;;5025519;28;20267;-70
2023/12/26 01:34:26;;;;;;;5.03;2.70;;;10.20;99.90;;;;;;5021471;28;20286;-70
2023/12/26 01:36:52;;;;;;;4.70;2.30;;;10.30;99.90;;;;;;5051527;28;20431;-70
2023/12/26 01:39:17;;;;;;;4.37;2.27;;;10.20;99.90;;;;;;5048823;28;20176;-69
2023/12/26 01:41:43;;;;;;;3.83;2.13;;;10.20;99.90;;;;;;5018194;28;20238;-69
2023/12/26 01:44:09;;;;;;;2.60;1.80;;;10.20;99.90;;;;;;5019091;28;20208;-67
2023/12/26 01:46:35;;;;;;;5.70;2.50;;;10.20;99.90;;;;;;5024903;28;20267;-68
2023/12/26 01:49:01;;;;;;;6.50;2.30;;;10.20;99.90;;;;;;5011434;28;20216;-68
2023/12/26 01:51:29;;;;;;;3.83;2.10;;;10.20;99.90;;;;;;5021642;28;20634;-68
2023/12/26 01:53:55;;;;;;;5.50;2.57;;;10.20;99.90;;;;;;5022246;28;20775;-68
2023/12/26 01:56:21;;;;;;;4.13;2.10;;;10.30;99.90;;;;;;5022292;28;20419;-68
2023/12/26 01:58:49;;;;;;;3.80;2.00;;;10.20;99.90;;;;;;5024915;28;20451;-68
2023/12/26 02:01:15;;;;;;;3.03;2.07;;;10.10;99.90;;;;;;5020564;28;21033;-69
2023/12/26 02:03:42;;;;;;;4.27;2.53;;;10.10;99.90;;;;;;5021866;28;20459;-69
2023/12/26 02:06:08;;;;;;;6.47;2.80;;;10.10;99.90;;;;;;5021503;28;20880;-69
2023/12/26 02:08:36;;;;;;;3.10;1.90;;;10.00;99.90;;;;;;5018707;28;20444;-69
2023/12/26 02:11:02;;;;;;;7.00;2.77;;;10.10;99.90;;;;;;5021195;28;20953;-69
2023/12/26 02:13:29;;;;;;;3.30;1.77;;;10.20;99.90;;;;;;5018478;28;20463;-69
2023/12/26 02:15:57;;;;;;;3.80;2.30;;;10.10;99.90;;;;;;5031849;28;20516;-68
2023/12/26 02:18:23;;;;;;;5.50;2.60;;;10.10;99.90;;;;;;5021562;28;20929;-68
2023/12/26 02:20:49;;;;;;;3.80;2.60;;;10.10;99.90;;;;;;5021926;28;20419;-69
2023/12/26 02:23:15;;;;;;;3.50;2.03;;;10.10;99.90;;;;;;5018045;28;20465;-69
2023/12/26 02:25:40;;;;;;;3.17;1.93;;;10.10;99.90;;;;;;5017054;28;20181;-69
2023/12/26 02:28:07;;;;;;;6.27;2.47;;;10.20;99.90;;;;;;5049321;28;20368;-69
2023/12/26 02:30:35;;;;;;;3.70;2.13;;;10.20;99.90;;;;;;5020140;28;20176;-69
2023/12/26 02:33:03;;;;;;;5.60;2.23;;;10.20;99.90;;;;;;5020863;28;20471;-69
2023/12/26 02:35:30;;;;;;;3.73;2.33;;;10.20;99.90;;;;;;5016728;28;20990;-69
2023/12/26 02:37:56;;;;;;;6.57;2.60;;;10.20;99.90;;;;;;5022954;28;20681;-69
2023/12/26 02:40:21;;;;;;;3.37;2.10;;;10.30;99.90;;;;;;5015512;28;20945;-69
2023/12/26 02:42:47;;;;;;;2.10;1.50;;;10.30;99.90;;;;;;5018902;28;20212;-69
2023/12/26 02:45:14;;;;;;;3.97;2.20;;;10.20;99.90;;;;;;5020092;28;20184;-69
2023/12/26 02:47:40;;;;;;;4.57;2.30;;;10.20;99.90;;;;;;5017888;28;20623;-69
2023/12/26 02:50:06;;;;;;;3.50;2.23;;;10.30;99.90;;;;;;5017411;28;20519;-69
2023/12/26 02:52:32;;;;;;;5.30;2.17;;;10.20;99.90;;;;;;5020229;28;20731;-69
2023/12/26 02:54:57;;;;;;;6.93;2.17;;;10.30;99.90;;;;;;5019233;28;20529;-69
2023/12/26 02:57:23;;;;;;;6.00;2.70;;;10.30;99.90;;;;;;5018598;28;20176;-69
2023/12/26 02:59:48;;;;;;;3.90;2.10;;;10.30;99.90;;;;;;5021213;28;20180;-69
2023/12/26 03:02:14;;;;;;;4.13;2.47;;;10.40;99.90;;;;;;5019051;28;20184;-69
2023/12/26 03:04:40;;;;;;;7.10;2.30;;;10.40;99.90;;;;;;5020129;28;20439;-69
2023/12/26 03:07:05;;;;;;;7.50;2.50;;;10.40;99.90;;;;;;5019500;28;20262;-69
2023/12/26 03:09:31;;;;;;;5.60;2.63;;;10.40;99.90;;;;;;5020338;28;20228;-69
2023/12/26 03:11:57;;;;;;;10.13;2.60;;;10.50;99.90;;;;;;5021418;28;20221;-69
2023/12/26 03:14:22;;;;;;;7.00;2.40;;;10.40;99.90;;;;;;5016502;28;20773;-69
2023/12/26 03:16:49;;;;;;;6.43;2.30;;;10.30;99.90;;;;;;5023673;28;20185;-69
2023/12/26 03:19:14;;;;;;;5.67;2.23;;;10.40;99.90;;;;;;5018216;28;20689;-69
2023/12/26 03:21:40;;;;;;;8.37;2.83;;;10.40;99.90;;;;;;5019400;28;20419;-69
2023/12/26 03:24:06;;;;;;;8.30;2.17;;;10.40;99.90;;;;;;5018139;28;20220;-69
2023/12/26 03:26:32;;;;;;;8.70;2.60;;;10.40;99.90;;;;;;5016965;28;20750;-69
2023/12/26 03:28:58;;;;;;;5.70;2.40;;;10.40;99.90;;;;;;5019728;28;20419;-69
2023/12/26 03:31:24;;;;;;;3.30;2.20;;;10.40;99.90;;;;;;5020258;28;20418;-69
2023/12/26 03:33:50;;;;;;;4.83;1.93;;;10.50;99.90;;;;;;5022479;28;20674;-69
2023/12/26 03:36:16;;;;;;;8.90;2.37;;;10.50;99.90;;;;;;5019529;28;20422;-69
2023/12/26 03:38:43;;;;;;;4.87;2.57;;;10.50;99.90;;;;;;5021830;28;20638;-69
2023/12/26 03:41:09;;;;;;;5.37;2.13;;;10.50;99.90;;;;;;5020242;28;20290;-69
2023/12/26 03:43:35;;;;;;;5.00;2.23;;;10.50;99.90;;;;;;5017301;28;20461;-69
2023/12/26 03:46:02;;;;;;;9.20;2.93;;;10.50;99.90;;;;;;5016299;28;20439;-69
2023/12/26 03:48:28;;;;;;;6.83;2.77;;;10.50;99.90;;;;;;5017224;28;20192;-69
2023/12/26 03:50:54;;;;;;;5.90;2.20;;;10.50;99.90;;;;;;5022130;28;20874;-69
2023/12/26 03:53:19;;;;;;;6.47;2.23;;;10.60;99.90;;;;;;5020030;28;20547;-69
2023/12/26 03:55:46;;;;;;;6.67;2.60;;;10.60;99.90;;;;;;5018158;28;20549;-69
2023/12/26 03:58:12;;;;;;;6.97;2.27;;;10.60;99.90;;;;;;5019441;28;20189;-69
2023/12/26 04:00:38;;;;;;;5.10;2.10;;;10.60;99.90;;;;;;5024932;28;20415;-69
2023/12/26 04:03:04;;;;;;;4.33;2.00;;;10.70;99.90;;;;;;5023641;28;20573;-69
2023/12/26 04:05:29;;;;;;;5.43;2.10;;;10.70;99.90;;;;;;5025608;28;20191;-70
2023/12/26 04:07:55;;;;;;;4.13;2.20;;;10.70;99.90;;;;;;5022914;28;20192;-69
2023/12/26 04:10:20;;;;;;;5.10;2.47;;;10.70;99.90;;;;;;5022335;28;20203;-69
2023/12/26 04:12:46;;;;;;;5.27;2.23;;;10.70;99.90;;;;;;5027100;28;20212;-69
2023/12/26 04:15:12;;;;;;;3.47;2.20;;;10.80;99.90;;;;;;5024015;28;20196;-69
2023/12/26 04:17:37;;;;;;;3.80;2.17;;;10.80;99.90;;;;;;5023169;28;20185;-69
2023/12/26 04:20:04;;;;;;;7.23;2.57;;;10.80;99.90;;;;;;5022558;28;20272;-69
2023/12/26 04:22:29;;;;;;;5.50;2.17;;;10.80;99.90;;;;;;5020224;28;20180;-69
2023/12/26 04:24:55;;;;;;;4.60;2.03;;;10.70;99.90;;;;;;5023172;28;20481;-69
2023/12/26 04:27:21;;;;;;;4.90;2.03;;;10.80;99.90;;;;;;5044032;28;20184;-69
2023/12/26 04:29:47;;;;;;;5.07;2.03;;;10.70;99.90;;;;;;5023042;28;20203;-69
2023/12/26 04:32:13;;;;;;;6.53;2.30;;;10.70;99.90;;;;;;5023235;28;20506;-69
2023/12/26 04:34:38;;;;;;;5.17;2.37;;;10.80;99.90;;;;;;5021952;28;20192;-69
2023/12/26 04:37:04;;;;;;;4.53;2.40;;;10.80;99.90;;;;;;5021564;28;20185;-69
2023/12/26 04:39:30;;;;;;;6.63;2.13;;;10.70;99.90;;;;;;5021233;28;20957;-69
2023/12/26 04:41:56;;;;;;;6.43;2.00;;;10.70;99.90;;;;;;5025332;28;20313;-69
2023/12/26 04:44:23;;;;;;;3.83;1.93;;;10.70;99.90;;;;;;5021875;28;20216;-69
2023/12/26 04:46:51;;;;;;;9.40;2.43;;;10.70;99.90;;;;;;5018592;28;20280;-69
2023/12/26 04:49:16;;;;;;;6.40;2.27;;;10.70;99.90;;;;;;5022732;28;20431;-69
2023/12/26 04:51:42;;;;;;;5.00;2.20;;;10.70;99.90;;;;;;5022529;28;20466;-70
2023/12/26 04:54:07;;;;;;;3.90;2.47;;;10.70;99.90;;;;;;5016033;28;20228;-69
2023/12/26 04:56:33;;;;;;;12.80;2.87;;;10.70;99.90;;;;;;5019063;28;20187;-69
2023/12/26 04:58:59;;;;;;;7.10;2.50;;;10.70;99.90;;;;;;5021810;28;20177;-69
2023/12/26 05:01:24;;;;;;;5.67;2.30;;;10.70;99.90;;;;;;5024143;28;20191;-69
2023/12/26 05:03:50;;;;;;;7.47;2.40;;;10.70;99.90;;;;;;5021196;28;20204;-69
2023/12/26 05:06:19;;;;;;;3.60;2.50;;;10.70;99.90;;;;;;5020922;28;20652;-68
2023/12/26 05:08:45;;;;;;;4.93;2.47;;;10.70;99.90;;;;;;5021063;28;20707;-68
2023/12/26 05:11:21;;;;;;;11.67;2.80;;;10.70;99.90;;;;;;5023290;28;20502;-68
2023/12/26 05:13:47;;;;;;;8.10;2.50;;;10.80;99.90;;;;;;5020388;28;20203;-68
2023/12/26 05:16:12;;;;;;;4.20;1.93;;;10.70;99.90;;;;;;5022729;28;20476;-68
2023/12/26 05:18:38;;;;;;;8.40;2.93;;;10.80;99.90;;;;;;5018852;28;20268;-68
2023/12/26 05:21:04;;;;;;;6.30;2.30;;;10.70;99.90;;;;;;5020843;28;20654;-68
2023/12/26 05:23:29;;;;;;;4.43;2.50;;;10.70;99.90;;;;;;5020119;28;20231;-68
2023/12/26 05:25:55;;;;;;;5.90;2.03;;;10.80;99.90;;;;;;5021217;28;20196;-69
2023/12/26 05:28:20;;;;;;;7.17;2.07;;;10.80;99.90;;;;;;5017932;28;20230;-68
2023/12/26 05:30:46;;;;;;;6.27;2.17;;;10.80;99.90;;;;;;5019542;28;20192;-69
2023/12/26 05:33:11;;;;;;;3.13;2.30;;;10.80;99.90;;;;;;5022278;28;20698;-68
2023/12/26 05:35:37;;;;;;;2.77;1.90;;;10.80;99.90;;;;;;5023612;28;20206;-68
2023/12/26 05:38:03;;;;;;;6.37;2.57;;;10.80;99.90;;;;;;5019237;28;20177;-68
2023/12/26 05:40:29;;;;;;;5.57;2.10;;;10.80;99.90;;;;;;5018918;28;20437;-69
2023/12/26 05:42:54;;;;;;;5.10;2.10;;;10.80;99.90;;;;;;5017090;28;20263;-68
2023/12/26 05:45:20;;;;;;;6.57;2.83;;;10.80;99.90;;;;;;5052072;28;20191;-68
2023/12/26 05:47:46;;;;;;;7.57;2.00;;;10.80;99.90;;;;;;5021800;28;20211;-69
2023/12/26 05:50:12;;;;;;;3.40;2.13;;;10.80;99.90;;;;;;5021611;28;20196;-69
2023/12/26 05:52:37;;;;;;;4.80;2.27;;;10.90;99.90;;;;;;5043941;28;20502;-68
2023/12/26 05:55:03;;;;;;;4.57;2.53;;;10.80;99.90;;;;;;5024875;28;20657;-68
2023/12/26 05:57:29;;;;;;;9.20;2.57;;;10.80;99.90;;;;;;5018926;28;20180;-69
2023/12/26 05:59:54;;;;;;;5.13;2.20;;;10.90;99.90;;;;;;5024360;28;20223;-69
2023/12/26 06:02:20;;;;;;;6.90;2.73;;;10.90;99.90;;;;;;5016741;28;20193;-68
2023/12/26 06:04:46;;;;;;;5.50;2.30;;;10.90;99.90;;;;;;5020328;28;20204;-68
2023/12/26 06:07:14;;;;;;;7.53;2.40;;;10.90;99.90;;;;;;5016902;28;20220;-68
2023/12/26 06:09:39;;;;;;;8.33;2.50;;;10.90;99.90;;;;;;5046221;28;20557;-68
2023/12/26 06:12:05;;;;;;;5.73;2.27;;;11.00;99.90;;;;;;5019552;28;20468;-68
2023/12/26 06:14:31;;;;;;;7.47;2.50;;;11.00;99.90;;;;;;5015102;28;20207;-68
2023/12/26 06:16:57;;;;;;;14.20;2.77;;;11.00;99.90;;;;;;5022095;28;20189;-68
2023/12/26 06:19:23;;;;;;;6.97;2.17;;;11.00;99.90;;;;;;5021167;28;20179;-68
2023/12/26 06:21:48;;;;;;;3.00;2.27;;;11.00;99.90;;;;;;5016709;28;20544;-68
2023/12/26 06:24:14;;;;;;;6.90;2.43;;;10.90;99.90;;;;;;5020818;28;20690;-68
2023/12/26 06:26:40;;;;;;;6.80;2.40;;;10.90;99.90;;;;;;5019125;28;20196;-68
2023/12/26 06:29:05;;;;;;;5.50;2.90;;;10.90;99.90;;;;;;5022342;28;20177;-68
2023/12/26 06:31:31;;;;;;;11.07;2.30;;;10.90;99.90;;;;;;5015899;28;20279;-69
2023/12/26 06:33:56;;;;;;;6.57;2.23;;;10.90;99.90;;;;;;5021781;28;20564;-69
2023/12/26 06:36:22;;;;;;;3.97;2.43;;;10.90;99.90;;;;;;5018865;28;20181;-69
2023/12/26 06:38:47;;;;;;;4.87;2.30;;;10.90;99.90;;;;;;5016625;28;20188;-69
2023/12/26 06:41:14;;;;;;;5.80;2.60;;;11.00;99.90;;;;;;5017564;28;20169;-68
2023/12/26 06:43:39;;;;;;;5.20;2.50;;;10.90;99.90;;;;;;5018593;28;20189;-68
2023/12/26 06:46:05;;;;;;;6.30;2.40;;;10.90;99.90;;;;;;5018252;28;20434;-68
2023/12/26 06:48:30;;;;;;;5.43;2.30;;;10.90;99.90;;;;;;5025891;28;20200;-69
2023/12/26 06:50:56;;;;;;;7.93;2.97;;;10.90;99.90;;;;;;5014848;28;20184;-68
2023/12/26 06:53:22;;;;;;;6.47;2.20;;;10.80;99.90;;;;;;5020296;28;20204;-68
2023/12/26 06:55:47;;;;;;;6.27;2.40;;;10.90;99.90;;;;;;5021698;28;20215;-69
2023/12/26 06:58:13;;;;;;;6.30;2.40;;;10.90;99.90;;;;;;5020518;28;20966;-68
2023/12/26 07:00:38;;;;;;;7.10;2.40;;;10.90;99.90;;;;;;5020901;28;20251;-69
2023/12/26 07:03:04;;;;;;;6.57;2.40;;;10.80;99.90;;;;;;5024302;28;20200;-68
2023/12/26 07:05:30;;;;;;;6.63;2.70;;;10.80;99.90;;;;;;5020452;28;20231;-69
2023/12/26 07:07:55;;;;;;;5.00;2.10;;;10.80;99.90;;;;;;5018628;28;20195;-68
2023/12/26 07:10:21;;;;;;;4.70;2.20;;;10.90;99.90;;;;;;5017629;28;20269;-69
2023/12/26 07:12:46;;;;;;;4.37;2.33;;;10.90;99.90;;;;;;5018616;28;20205;-69
2023/12/26 07:15:12;;;;;;;8.03;2.60;;;11.00;99.90;;;;;;5017032;28;20173;-69
2023/12/26 07:17:37;;;;;;;5.50;2.17;;;10.90;99.90;;;;;;5016285;28;20543;-69
2023/12/26 07:20:03;;;;;;;5.20;2.43;;;10.90;99.90;;;;;;5018745;28;20184;-69
2023/12/26 07:22:29;;;;;;;6.03;2.30;;;10.90;99.90;;;;;;5017791;28;20593;-69
2023/12/26 07:24:55;;;;;;;3.73;2.37;;;10.90;99.90;;;;;;5019381;28;20486;-69
2023/12/26 07:27:20;;;;;;;4.17;2.30;;;10.80;99.90;;;;;;5020376;28;20448;-68
2023/12/26 07:29:46;;;;;;;7.90;2.40;;;10.80;99.90;;;;;;5017002;28;20185;-68
2023/12/26 07:32:11;;;;;;;6.07;4.30;;;10.80;99.90;;;;;;5021891;28;20211;-68
2023/12/26 07:34:40;;;;;;;4.80;2.60;;;10.80;99.90;;;;;;5047444;28;20267;-69
2023/12/26 07:37:07;;;;;;;4.10;2.27;;;10.70;99.90;;;;;;5021396;28;20177;-69
2023/12/26 07:39:32;;;;;;;6.63;2.20;;;10.80;99.90;;;;;;5021262;28;20824;-69
2023/12/26 07:42:00;;;;;;;6.37;2.47;;;10.80;99.90;;;;;;5018024;28;20435;-69
2023/12/26 07:44:26;;;;;;;5.07;2.20;;;10.80;99.90;;;;;;5019631;28;20207;-69
2023/12/26 07:46:52;;;;;;;6.70;2.93;;;10.80;99.90;;;;;;5019232;28;20427;-69
2023/12/26 07:49:17;;;;;;;5.13;2.30;;;10.70;99.90;;;;;;5017883;28;20411;-69
2023/12/26 07:51:45;;;;;;;5.00;2.23;;;10.70;99.90;;;;;;5021140;28;20232;-69
2023/12/26 07:54:11;;;;;;;4.30;2.20;;;10.80;99.90;;;;;;5017860;28;20193;-69
2023/12/26 07:56:36;;;;;;;4.73;2.10;;;10.80;99.90;;;;;;5022102;28;20419;-69
2023/12/26 07:59:02;;;;;;;7.40;2.47;;;10.80;99.90;;;;;;5015146;28;20651;-68
2023/12/26 08:01:28;;;;;;;5.13;2.43;;;10.80;99.90;;;;;;5021658;28;20220;-68
2023/12/26 08:03:54;;;;;;;6.50;2.20;;;10.80;99.90;;;;;;5018035;28;20592;-70
2023/12/26 08:06:22;;;;;;;4.40;2.27;;;10.90;99.90;;;;;;5021718;28;20526;-69
2023/12/26 08:08:47;;;;;;;6.30;2.50;;;10.90;99.90;;;;;;5016406;28;20238;-69
2023/12/26 08:11:13;;;;;;;4.60;2.57;;;10.80;99.90;;;;;;5020474;28;20419;-69
2023/12/26 08:13:39;;;;;;;7.20;2.80;;;10.80;99.90;;;;;;5014925;28;20206;-68
2023/12/26 08:16:05;;;;;;;6.47;3.63;;;10.90;99.90;;;;;;5018727;28;20177;-68
2023/12/26 08:18:31;;;;;;;4.87;2.97;;;10.90;99.90;;;;;;5013808;28;20497;-68
2023/12/26 08:20:56;;;;;;;5.37;2.33;;;10.80;99.90;;;;;;5018647;28;20431;-69
2023/12/26 08:23:22;;;;;;;4.87;2.50;;;10.90;99.90;;;;;;5019776;28;20302;-70
2023/12/26 08:25:47;;;;;;;4.77;2.57;;;10.80;99.90;;;;;;5014820;28;20189;-68
2023/12/26 08:28:14;;;;;;;4.60;2.40;;;10.80;99.90;;;;;;5018760;28;20205;-68
2023/12/26 08:30:39;;;;;;;3.30;2.50;;;10.80;99.90;;;;;;5049964;28;21262;-69
2023/12/26 08:33:05;;;;;;;5.43;2.57;;;10.80;99.90;;;;;;5015988;28;20566;-69
2023/12/26 08:35:31;;;;;;;9.47;2.97;;;10.80;99.90;;;;;;5020376;28;20235;-69
2023/12/26 08:37:57;;;;;;;6.10;2.63;;;10.80;99.90;;;;;;5016675;28;20271;-69
2023/12/26 08:40:23;;;;;;;6.47;2.70;;;10.80;99.90;;;;;;5019773;28;20968;-69
2023/12/26 08:42:48;;;;;;;5.13;2.50;;;10.80;99.90;;;;;;5019211;28;20234;-69
2023/12/26 08:45:14;;;;;;;4.27;2.20;;;10.70;99.90;;;;;;5025423;28;20826;-69
2023/12/26 08:47:39;;;;;;;5.33;2.80;;;10.80;99.90;;;;;;5023554;28;20212;-69
2023/12/26 08:50:05;;;;;;;5.50;2.60;;;10.90;99.90;;;;;;5022534;28;20263;-69
2023/12/26 08:52:31;;;;;;;6.00;2.60;;;10.90;99.90;;;;;;5021042;28;20254;-69
2023/12/26 08:54:57;;;;;;;7.93;2.53;;;10.90;99.90;;;;;;5025204;28;20443;-68
2023/12/26 08:57:22;;;;;;;4.93;2.97;;;10.80;99.90;;;;;;5048770;28;20543;-68
2023/12/26 08:59:48;;;;;;;6.17;2.80;;;10.80;99.90;;;;;;5023617;28;20200;-68
2023/12/26 09:02:14;;;;;;;6.90;2.80;;;10.80;99.90;;;;;;5023467;28;20672;-69
2023/12/26 09:04:39;;;;;;;6.80;2.50;;;10.80;99.90;;;;;;5023098;28;20201;-69
2023/12/26 09:07:05;;;;;;;5.30;2.60;;;10.80;99.90;;;;;;5020776;28;20184;-70
2023/12/26 09:09:30;;;;;;;3.90;2.23;;;10.70;99.90;;;;;;5023676;28;20271;-69
2023/12/26 09:11:56;;;;;;;7.33;2.60;;;10.50;99.90;;;;;;5023108;28;20204;-69
2023/12/26 09:14:22;;;;;;;8.07;2.90;;;10.50;99.90;;;;;;5022625;28;20685;-69
2023/12/26 09:16:48;;;;;;;6.43;2.53;;;10.40;99.90;;;;;;5021331;28;20199;-70
2023/12/26 09:19:13;;;;;;;11.77;3.20;;;10.50;99.90;;;;;;5021959;28;20427;-69
2023/12/26 09:21:39;;;;;;;7.10;2.90;;;10.50;99.90;;;;;;5022433;28;20207;-69
2023/12/26 09:24:05;;;;;;;8.50;2.73;;;10.40;99.90;;;;;;5022698;28;20219;-70
2023/12/26 09:26:31;;;;;;;8.27;2.73;;;10.50;99.90;;;;;;5022089;28;20187;-69
2023/12/26 09:28:56;;;;;;;7.60;2.40;;;10.50;99.90;;;;;;5020611;28;20270;-69
2023/12/26 09:31:22;;;;;;;6.37;2.87;;;10.50;99.90;;;;;;5020213;28;20184;-69
2023/12/26 09:33:48;;;;;;;10.10;3.50;;;10.50;99.90;;;;;;5018953;28;20215;-69
2023/12/26 09:36:14;;;;;;;4.57;2.37;;;10.50;99.90;;;;;;5020079;28;20508;-69
2023/12/26 09:38:41;;;;;;;6.27;2.70;;;10.40;99.90;;;;;;5024541;28;20411;-69
2023/12/26 09:41:09;;;;;;;6.23;2.70;;;10.40;99.90;;;;;;5019964;28;21072;-69
2023/12/26 09:43:36;;;;;;;7.03;2.87;;;10.50;99.90;;;;;;5021715;28;20460;-69
2023/12/26 09:46:03;;;;;;;7.03;2.63;;;10.50;99.90;;;;;;5022677;28;20441;-69
2023/12/26 09:48:33;;;;;;;4.80;2.63;;;10.40;99.90;;;;;;5023748;28;21998;-69
2023/12/26 09:51:03;;;;;;;9.30;2.67;;;10.30;99.90;;;;;;5019012;28;20443;-69
2023/12/26 09:53:33;;;;;;;5.60;2.90;;;10.30;99.90;;;;;;5022218;28;20589;-70
2023/12/26 09:55:59;;;;;;;6.23;3.00;;;10.40;99.90;;;;;;5022413;28;20486;-69
2023/12/26 09:58:26;;;;;;;5.00;2.90;;;10.40;99.90;;;;;;5024284;28;20399;-69
2023/12/26 10:00:53;;;;;;;6.33;2.63;;;10.30;99.90;;;;;;5020399;28;20447;-69
2023/12/26 10:03:19;;;;;;;4.50;2.30;;;10.40;99.90;;;;;;5020696;28;20443;-69
2023/12/26 10:05:45;;;;;;;5.03;2.37;;;10.30;99.90;;;;;;5022648;28;20423;-69
2023/12/26 10:08:11;;;;;;;4.80;2.50;;;10.40;99.90;;;;;;5023569;28;20775;-69
2023/12/26 10:10:36;;;;;;;9.10;3.00;;;10.40;99.90;;;;;;5019644;28;20447;-69
2023/12/26 10:13:02;;;;;;;5.10;1.87;;;10.40;99.90;;;;;;5021959;28;20223;-70
2023/12/26 10:15:28;;;;;;;6.10;2.60;;;10.50;99.90;;;;;;5018246;28;20824;-69
2023/12/26 10:17:55;;;;;;;7.57;2.57;;;10.50;99.90;;;;;;5019639;28;20183;-69
2023/12/26 10:20:21;;;;;;;7.00;3.03;;;10.50;99.90;;;;;;5016441;28;20223;-70
2023/12/26 10:22:46;;;;;;;4.50;2.47;;;10.40;99.90;;;;;;5021977;28;20447;-70
2023/12/26 10:25:13;;;;;;;5.03;2.30;;;10.40;99.90;;;;;;5019322;28;20176;-70
2023/12/26 10:27:39;;;;;;;6.93;2.67;;;10.40;99.90;;;;;;5022850;28;20544;-70
2023/12/26 10:30:05;;;;;;;7.07;2.87;;;10.50;99.90;;;;;;5017559;28;20442;-70
2023/12/26 10:32:32;;;;;;;4.40;2.50;;;10.50;99.90;;;;;;5022340;28;20459;-69
2023/12/26 10:35:15;;;;;;;4.03;2.70;;;10.50;99.90;;;;;;5018033;28;20824;-70
2023/12/26 10:37:41;;;;;;;7.20;3.27;;;10.60;99.90;;;;;;5018303;28;20872;-70
2023/12/26 10:40:08;;;;;;;8.53;2.97;;;10.60;99.90;;;;;;5023068;28;20506;-70
2023/12/26 10:42:38;;;;;;;5.43;3.00;;;10.70;99.90;;;;;;5020025;28;20878;-70
2023/12/26 10:45:05;;;;;;;7.67;2.83;;;10.70;99.90;;;;;;5021064;28;20429;-70
2023/12/26 10:47:31;;;;;;;8.43;2.70;;;10.80;99.90;;;;;;5018916;28;20567;-70
2023/12/26 10:50:02;;;;;;;4.80;2.70;;;10.70;99.90;;;;;;5018951;28;20427;-70
2023/12/26 10:52:29;;;;;;;4.00;3.07;;;10.70;99.90;;;;;;5019597;28;20561;-70
2023/12/26 10:54:58;;;;;;;6.67;2.90;;;10.60;99.90;;;;;;5021745;28;21066;-70
2023/12/26 10:57:24;;;;;;;7.37;3.07;;;10.60;99.90;;;;;;5020794;28;20435;-70
2023/12/26 13:51:40;;;;;;;5.03;2.93;;;10.80;99.90;;;;;;5022545;28;20453;-68
2023/12/26 13:54:05;;;;;;;7.80;2.77;;;10.90;99.90;;;;;;5018291;28;20435;-68
2023/12/26 13:56:31;;;;;;;6.67;3.63;;;10.90;99.90;;;;;;5021481;28;20882;-69
2023/12/26 13:58:57;;;;;;;10.17;3.53;;;10.90;99.90;;;;;;5017752;28;20193;-69
2023/12/26 14:01:22;;;;;;;5.27;2.80;;;11.00;99.90;;;;;;5024473;28;20187;-69
2023/12/26 14:03:49;;;;;;;10.77;3.80;;;11.00;99.90;;;;;;5023282;28;20210;-68
2023/12/26 14:06:26;;;;;;;8.50;3.03;;;11.00;99.90;;;;;;5018607;28;20189;-69
2023/12/26 14:08:52;;;;;;;10.83;3.00;;;11.00;99.90;;;;;;5021854;28;20460;-69
2023/12/26 14:11:19;;;;;;;6.20;3.40;;;11.10;99.90;;;;;;5018889;28;20443;-69
2023/12/26 14:13:48;;;;;;;6.73;3.30;;;11.10;99.90;;;;;;5021975;28;20999;-69
2023/12/26 14:16:15;;;;;;;5.10;3.23;;;11.20;99.90;;;;;;5021891;28;20427;-68
2023/12/26 14:18:40;;;;;;;6.93;3.80;;;11.20;99.90;;;;;;5016235;28;20443;-68
2023/12/26 14:21:06;;;;;;;7.87;3.53;;;11.20;99.90;;;;;;5019393;28;20424;-69
2023/12/26 14:23:31;;;;;;;6.57;3.20;;;11.30;99.90;;;;;;5021489;28;20231;-69
2023/12/26 14:25:57;;;;;;;8.53;2.83;;;11.20;99.90;;;;;;5017141;28;20672;-68
2023/12/26 14:28:23;;;;;;;6.03;3.30;;;11.20;99.90;;;;;;5018702;28;20679;-68
2023/12/26 14:30:50;;;;;;;4.27;3.00;;;11.10;99.90;;;;;;5016649;28;20426;-68
2023/12/26 14:33:19;;;;;;;5.57;4.27;;;11.00;99.90;;;;;;5015745;28;20482;-68
2023/12/26 14:35:49;;;;;;;9.30;3.60;;;10.90;99.90;;;;;;5013892;28;20435;-68
2023/12/26 14:38:15;;;;;;;6.70;3.47;;;10.80;99.90;;;;;;5009587;28;20454;-69
2023/12/26 14:40:41;;;;;;;8.27;3.10;;;10.80;99.90;;;;;;5014906;28;20943;-69
2023/12/26 14:43:07;;;;;;;6.33;3.50;;;10.70;99.90;;;;;;5009261;28;20476;-69
2023/12/26 14:45:33;;;;;;;5.57;3.07;;;10.70;99.90;;;;;;5017192;28;20435;-69
2023/12/26 14:47:58;;;;;;;7.13;3.77;;;10.60;99.90;;;;;;5018812;28;20196;-69
2023/12/26 14:50:24;;;;;;;8.53;2.73;;;10.60;99.90;;;;;;5015038;28;20275;-69
2023/12/26 14:52:49;;;;;;;8.83;3.07;;;10.50;99.90;;;;;;5018466;28;20646;-70
2023/12/26 14:55:15;;;;;;;8.10;3.37;;;10.50;99.90;;;;;;5017964;28;20189;-69
2023/12/26 14:57:41;;;;;;;8.97;3.23;;;10.50;99.90;;;;;;5013573;28;20203;-69
2023/12/26 15:00:07;;;;;;;6.03;3.43;;;10.50;99.90;;;;;;5013815;28;20439;-69
2023/12/26 15:02:34;;;;;;;5.87;3.10;;;10.50;99.90;;;;;;5013791;28;20188;-69
2023/12/26 15:04:59;;;;;;;6.10;2.77;;;10.50;99.90;;;;;;5014966;28;20216;-69
2023/12/26 15:07:25;;;;;;;5.70;3.30;;;10.50;99.90;;;;;;5010055;28;20458;-69
2023/12/26 15:09:50;;;;;;;5.80;2.70;;;10.50;99.90;;;;;;5012851;28;20615;-69
2023/12/26 15:12:16;;;;;;;6.00;3.60;;;10.50;99.90;;;;;;5014209;28;20299;-70
2023/12/26 15:14:42;;;;;;;8.60;3.00;;;10.50;99.90;;;;;;5010475;28;20201;-69
2023/12/26 15:17:07;;;;;;;7.10;2.73;;;10.50;99.90;;;;;;5009378;28;20198;-69
2023/12/26 15:19:33;;;;;;;8.57;3.83;;;10.50;99.90;;;;;;5016214;28;20666;-69
2023/12/26 15:21:58;;;;;;;6.83;2.80;;;10.50;99.90;;;;;;5017275;28;20690;-69
2023/12/26 15:24:24;;;;;;;4.80;3.07;;;10.50;99.90;;;;;;5011961;28;20212;-69
2023/12/26 15:26:50;;;;;;;9.27;2.97;;;10.60;99.90;;;;;;5012322;28;20714;-69
2023/12/26 15:29:16;;;;;;;5.57;2.30;;;10.70;99.90;;;;;;5011057;28;20678;-68
2023/12/26 15:31:42;;;;;;;5.67;3.10;;;10.70;99.90;;;;;;5018959;28;20192;-68